createdAt,value
2022-11-23T00:10:01.053Z,0.00
2022-11-23T00:20:01.026Z,0.00
2022-11-23T00:30:00.142Z,0.00
2022-11-23T00:40:01.304Z,0.00
2022-11-23T00:50:00.164Z,0.00
2022-11-23T01:00:01.043Z,0.00
2022-11-23T01:10:00.981Z,0.00
2022-11-23T01:20:01.071Z,0.00
2022-11-23T01:30:01.059Z,0.00
2022-11-23T01:40:02.086Z,0.00
2022-11-23T01:50:00.989Z,0.00
2022-11-23T02:00:00.150Z,0.00
2022-11-23T02:10:00.999Z,0.00
2022-11-23T02:20:01.134Z,0.00
2022-11-23T02:30:00.142Z,0.00
2022-11-23T02:50:00.128Z,0.00
2022-11-23T03:00:02.125Z,0.00
2022-11-23T03:10:00.133Z,0.00
2022-11-23T03:20:01.998Z,0.00
2022-11-23T03:30:00.156Z,0.00
2022-11-23T03:50:01.488Z,0.00
2022-11-23T04:00:01.246Z,0.00
2022-11-23T04:10:00.153Z,0.00
2022-11-23T04:20:00.150Z,0.00
2022-11-23T04:30:01.478Z,0.00
2022-11-23T04:40:00.168Z,0.00
2022-11-23T04:50:00.127Z,0.00
2022-11-23T05:00:00.165Z,0.00
2022-11-23T05:10:01.253Z,0.00
2022-11-23T05:20:01.533Z,0.00
2022-11-23T05:30:01.322Z,0.00
2022-11-23T05:40:01.571Z,0.00
2022-11-23T05:50:01.498Z,0.00
2022-11-23T06:00:01.971Z,0.11
2022-11-23T06:10:00.143Z,0.79
2022-11-23T06:20:01.347Z,5.21
2022-11-23T06:30:01.527Z,8.33
2022-11-23T06:40:01.302Z,33.33
2022-11-23T06:50:01.251Z,70.00
2022-11-23T07:00:00.153Z,126.67
2022-11-23T07:10:03.899Z,201.67
2022-11-23T07:20:01.080Z,280.00
2022-11-23T07:30:01.275Z,386.67
2022-11-23T07:40:01.474Z,466.67
2022-11-23T07:50:01.923Z,633.33
2022-11-23T08:00:01.629Z,768.33
2022-11-23T08:10:01.473Z,1572.50
2022-11-23T08:20:01.952Z,923.33
2022-11-23T08:30:03.486Z,976.67
2022-11-23T08:40:00.199Z,1175.00
2022-11-23T08:50:00.140Z,1213.33
2022-11-23T09:00:01.773Z,948.33
2022-11-23T09:10:01.473Z,991.67
2022-11-23T09:20:01.253Z,1066.67
2022-11-23T09:30:01.471Z,993.33
2022-11-23T09:40:01.306Z,1176.67
2022-11-23T09:50:01.047Z,1080.00
2022-11-23T10:00:01.315Z,1273.33
2022-11-23T10:10:00.975Z,5563.33
2022-11-23T10:20:00.181Z,6316.67
2022-11-23T10:30:01.040Z,14742.92
2022-11-23T10:40:01.237Z,8806.67
2022-11-23T10:50:01.054Z,4016.67
2022-11-23T11:00:01.697Z,7748.75
2022-11-23T11:10:01.174Z,13823.33
2022-11-23T11:20:01.084Z,5888.33
2022-11-23T11:30:01.914Z,8684.58
2022-11-23T11:40:01.039Z,11259.17
2022-11-23T11:50:01.570Z,8903.33
2022-11-23T12:00:01.126Z,11486.25
2022-11-23T12:10:01.025Z,11115.00
2022-11-23T12:20:01.312Z,6887.08
2022-11-23T12:30:01.559Z,6240.42
2022-11-23T12:40:01.464Z,7170.00
2022-11-23T12:50:00.125Z,4760.42
2022-11-23T13:00:00.165Z,8914.17
2022-11-23T13:10:01.301Z,9782.50
2022-11-23T13:20:01.046Z,6454.17
2022-11-23T13:30:01.407Z,2446.67
2022-11-23T13:40:01.236Z,3628.75
2022-11-23T13:50:01.237Z,1586.67
2022-11-23T14:00:00.161Z,1161.67
2022-11-23T14:10:02.946Z,1895.00
2022-11-23T14:20:01.349Z,1648.33
2022-11-23T14:30:00.157Z,540.00
2022-11-23T14:40:01.634Z,963.75
2022-11-23T14:50:00.148Z,316.67
2022-11-23T15:00:01.130Z,320.42
2022-11-23T15:10:01.547Z,73.33
2022-11-23T15:20:01.863Z,21.67
2022-11-23T15:30:01.389Z,8.72
2022-11-23T15:40:00.298Z,1.36
2022-11-23T15:50:01.217Z,0.34
2022-11-23T16:00:01.530Z,0.00
2022-11-23T16:10:02.355Z,0.00
2022-11-23T16:20:00.170Z,0.00
2022-11-23T16:30:03.079Z,0.00
2022-11-23T16:40:02.240Z,0.00
2022-11-23T16:50:01.241Z,0.00
2022-11-23T17:10:01.511Z,0.00
2022-11-23T17:20:04.055Z,0.00
2022-11-23T17:30:00.156Z,0.00
2022-11-23T17:40:00.188Z,0.00
2022-11-23T17:50:01.251Z,0.00
2022-11-23T18:00:03.413Z,0.00
2022-11-23T18:10:00.974Z,0.00
2022-11-23T18:20:01.289Z,0.00
2022-11-23T18:30:01.035Z,0.00
2022-11-23T18:40:01.725Z,0.00
2022-11-23T18:50:06.126Z,0.00
2022-11-23T19:00:00.626Z,0.00
2022-11-23T19:10:00.957Z,0.00
2022-11-23T19:20:01.071Z,0.00
2022-11-23T19:30:01.990Z,0.00
2022-11-23T19:40:01.069Z,0.00
2022-11-23T19:50:01.240Z,0.00
2022-11-23T20:00:01.094Z,0.00
2022-11-23T20:10:01.265Z,0.00
2022-11-23T20:20:01.077Z,0.00
2022-11-23T20:30:01.271Z,0.00
2022-11-23T20:40:01.092Z,0.00
2022-11-23T20:50:00.974Z,0.00
2022-11-23T21:00:01.041Z,0.00
2022-11-23T21:10:01.255Z,0.00
2022-11-23T21:20:00.204Z,0.00
2022-11-23T21:30:01.307Z,0.00
2022-11-23T21:40:01.475Z,0.00
2022-11-23T21:50:01.253Z,0.00
2022-11-23T22:00:01.506Z,0.00
2022-11-23T22:10:02.131Z,0.00
2022-11-23T22:30:01.039Z,0.00
2022-11-23T22:40:01.036Z,0.00
2022-11-23T22:50:00.188Z,0.00
2022-11-23T23:00:02.682Z,0.00
2022-11-23T23:10:01.031Z,0.00
2022-11-23T23:20:01.217Z,0.00
2022-11-23T23:30:01.533Z,0.00
2022-11-23T23:40:03.291Z,0.00
2022-11-23T23:50:00.905Z,0.00
